sensor_id;sensor_type;location;lat;lon;timestamp;temperature;humidity
20341;DHT22;10328;50.042;8.238;2022-07-03T00:01:58;17.40;99.90
20341;DHT22;10328;50.042;8.238;2022-07-03T00:04:25;17.40;99.90
20341;DHT22;10328;50.042;8.238;2022-07-03T00:06:53;17.30;99.90
20341;DHT22;10328;50.042;8.238;2022-07-03T00:09:21;17.20;99.90
20341;DHT22;10328;50.042;8.238;2022-07-03T00:11:47;17.10;99.90
20341;DHT22;10328;50.042;8.238;2022-07-03T00:14:14;17.00;99.90
20341;DHT22;10328;50.042;8.238;2022-07-03T00:16:41;17.10;99.90
20341;DHT22;10328;50.042;8.238;2022-07-03T00:19:08;17.00;99.90
20341;DHT22;10328;50.042;8.238;2022-07-03T00:21:40;17.20;99.90
20341;DHT22;10328;50.042;8.238;2022-07-03T00:24:26;17.20;99.90
20341;DHT22;10328;50.042;8.238;2022-07-03T00:26:55;17.30;99.90
20341;DHT22;10328;50.042;8.238;2022-07-03T00:29:27;17.40;99.90
20341;DHT22;10328;50.042;8.238;2022-07-03T00:31:56;17.30;99.90
20341;DHT22;10328;50.042;8.238;2022-07-03T00:34:24;17.00;99.90
20341;DHT22;10328;50.042;8.238;2022-07-03T00:36:52;16.90;99.90
20341;DHT22;10328;50.042;8.238;2022-07-03T00:39:19;16.80;99.90
20341;DHT22;10328;50.042;8.238;2022-07-03T00:41:45;16.60;99.90
20341;DHT22;10328;50.042;8.238;2022-07-03T00:44:13;16.50;99.90
20341;DHT22;10328;50.042;8.238;2022-07-03T00:46:41;16.50;99.90
20341;DHT22;10328;50.042;8.238;2022-07-03T00:49:09;16.50;99.90
20341;DHT22;10328;50.042;8.238;2022-07-03T00:51:38;16.50;99.90
20341;DHT22;10328;50.042;8.238;2022-07-03T00:54:08;16.50;99.90
20341;DHT22;10328;50.042;8.238;2022-07-03T00:56:38;16.50;99.90
20341;DHT22;10328;50.042;8.238;2022-07-03T00:59:06;16.70;99.90
20341;DHT22;10328;50.042;8.238;2022-07-03T01:01:35;16.70;99.90
20341;DHT22;10328;50.042;8.238;2022-07-03T01:04:36;16.70;99.90
20341;DHT22;10328;50.042;8.238;2022-07-03T01:07:10;16.50;99.90
20341;DHT22;10328;50.042;8.238;2022-07-03T01:15:41;16.30;99.90
20341;DHT22;10328;50.042;8.238;2022-07-03T01:18:54;16.10;99.90
20341;DHT22;10328;50.042;8.238;2022-07-03T01:24:54;16.20;99.90
20341;DHT22;10328;50.042;8.238;2022-07-03T01:27:35;16.20;99.90
20341;DHT22;10328;50.042;8.238;2022-07-03T01:30:09;16.20;99.90
20341;DHT22;10328;50.042;8.238;2022-07-03T01:32:45;16.00;99.90
20341;DHT22;10328;50.042;8.238;2022-07-03T01:35:14;15.90;99.90
20341;DHT22;10328;50.042;8.238;2022-07-03T01:37:42;15.90;99.90
20341;DHT22;10328;50.042;8.238;2022-07-03T01:40:09;15.90;99.90
20341;DHT22;10328;50.042;8.238;2022-07-03T01:42:36;16.10;99.90
20341;DHT22;10328;50.042;8.238;2022-07-03T01:45:09;16.20;99.90
20341;DHT22;10328;50.042;8.238;2022-07-03T01:47:38;16.20;99.90
20341;DHT22;10328;50.042;8.238;2022-07-03T01:50:08;16.30;99.90
20341;DHT22;10328;50.042;8.238;2022-07-03T01:52:37;16.30;99.90
20341;DHT22;10328;50.042;8.238;2022-07-03T01:55:15;16.40;99.90
20341;DHT22;10328;50.042;8.238;2022-07-03T01:57:51;16.40;99.90
20341;DHT22;10328;50.042;8.238;2022-07-03T02:00:22;16.30;99.90
20341;DHT22;10328;50.042;8.238;2022-07-03T02:03:04;16.20;99.90
20341;DHT22;10328;50.042;8.238;2022-07-03T02:08:33;16.20;99.90
20341;DHT22;10328;50.042;8.238;2022-07-03T02:11:20;16.10;99.90
20341;DHT22;10328;50.042;8.238;2022-07-03T02:19:34;15.60;99.90
20341;DHT22;10328;50.042;8.238;2022-07-03T02:22:07;15.50;99.90
20341;DHT22;10328;50.042;8.238;2022-07-03T02:24:44;15.50;99.90
20341;DHT22;10328;50.042;8.238;2022-07-03T02:27:23;15.60;99.90
20341;DHT22;10328;50.042;8.238;2022-07-03T02:30:06;15.70;99.90
20341;DHT22;10328;50.042;8.238;2022-07-03T02:32:38;15.60;99.90
20341;DHT22;10328;50.042;8.238;2022-07-03T02:35:07;15.60;99.90
20341;DHT22;10328;50.042;8.238;2022-07-03T02:38:06;15.50;99.90
20341;DHT22;10328;50.042;8.238;2022-07-03T02:48:25;15.30;99.90
20341;DHT22;10328;50.042;8.238;2022-07-03T02:51:01;15.50;99.90
20341;DHT22;10328;50.042;8.238;2022-07-03T02:53:41;15.40;99.90
20341;DHT22;10328;50.042;8.238;2022-07-03T02:56:15;15.40;99.90
20341;DHT22;10328;50.042;8.238;2022-07-03T02:58:58;15.30;99.90
20341;DHT22;10328;50.042;8.238;2022-07-03T03:04:17;15.30;99.90
20341;DHT22;10328;50.042;8.238;2022-07-03T03:06:51;15.20;99.90
20341;DHT22;10328;50.042;8.238;2022-07-03T03:09:27;15.20;99.90
20341;DHT22;10328;50.042;8.238;2022-07-03T03:12:01;15.00;99.90
20341;DHT22;10328;50.042;8.238;2022-07-03T03:14:38;15.10;99.90
20341;DHT22;10328;50.042;8.238;2022-07-03T03:17:07;15.30;99.90
20341;DHT22;10328;50.042;8.238;2022-07-03T03:19:40;15.40;99.90
20341;DHT22;10328;50.042;8.238;2022-07-03T03:25:11;15.40;99.90
20341;DHT22;10328;50.042;8.238;2022-07-03T03:27:38;15.30;99.90
20341;DHT22;10328;50.042;8.238;2022-07-03T03:30:05;15.30;99.90
20341;DHT22;10328;50.042;8.238;2022-07-03T03:32:35;15.40;99.90
20341;DHT22;10328;50.042;8.238;2022-07-03T03:35:02;15.40;99.90
20341;DHT22;10328;50.042;8.238;2022-07-03T03:37:30;15.50;99.90
20341;DHT22;10328;50.042;8.238;2022-07-03T03:39:57;15.40;99.90
20341;DHT22;10328;50.042;8.238;2022-07-03T03:42:24;15.30;99.90
20341;DHT22;10328;50.042;8.238;2022-07-03T03:44:51;15.30;99.90
20341;DHT22;10328;50.042;8.238;2022-07-03T03:47:17;15.30;99.90
20341;DHT22;10328;50.042;8.238;2022-07-03T03:49:45;15.40;99.90
20341;DHT22;10328;50.042;8.238;2022-07-03T03:52:12;15.40;99.90
20341;DHT22;10328;50.042;8.238;2022-07-03T03:54:39;15.50;99.90
20341;DHT22;10328;50.042;8.238;2022-07-03T03:57:35;15.40;99.90
20341;DHT22;10328;50.042;8.238;2022-07-03T04:00:04;15.40;99.90
20341;DHT22;10328;50.042;8.238;2022-07-03T04:02:31;15.60;99.90
20341;DHT22;10328;50.042;8.238;2022-07-03T04:04:58;15.50;99.90
20341;DHT22;10328;50.042;8.238;2022-07-03T04:07:24;15.50;99.90
20341;DHT22;10328;50.042;8.238;2022-07-03T04:09:51;15.60;99.90
20341;DHT22;10328;50.042;8.238;2022-07-03T04:12:18;15.70;99.90
20341;DHT22;10328;50.042;8.238;2022-07-03T04:14:44;15.70;99.90
20341;DHT22;10328;50.042;8.238;2022-07-03T04:17:11;15.70;99.90
20341;DHT22;10328;50.042;8.238;2022-07-03T04:19:39;15.60;99.90
20341;DHT22;10328;50.042;8.238;2022-07-03T04:22:06;15.70;99.90
20341;DHT22;10328;50.042;8.238;2022-07-03T04:24:36;15.80;99.90
20341;DHT22;10328;50.042;8.238;2022-07-03T04:27:03;15.80;99.90
20341;DHT22;10328;50.042;8.238;2022-07-03T04:29:30;15.80;99.90
20341;DHT22;10328;50.042;8.238;2022-07-03T04:31:56;15.80;99.90
20341;DHT22;10328;50.042;8.238;2022-07-03T04:34:23;15.70;99.90
20341;DHT22;10328;50.042;8.238;2022-07-03T04:36:50;15.80;99.90
20341;DHT22;10328;50.042;8.238;2022-07-03T04:39:16;15.90;99.90
20341;DHT22;10328;50.042;8.238;2022-07-03T04:41:43;15.90;99.90
20341;DHT22;10328;50.042;8.238;2022-07-03T04:44:10;16.10;99.90
20341;DHT22;10328;50.042;8.238;2022-07-03T04:46:36;16.20;99.90
20341;DHT22;10328;50.042;8.238;2022-07-03T04:49:03;16.30;99.90
20341;DHT22;10328;50.042;8.238;2022-07-03T04:51:30;16.40;99.90
20341;DHT22;10328;50.042;8.238;2022-07-03T04:53:56;16.40;99.90
20341;DHT22;10328;50.042;8.238;2022-07-03T04:56:23;16.50;99.90
20341;DHT22;10328;50.042;8.238;2022-07-03T04:58:49;16.60;99.90
20341;DHT22;10328;50.042;8.238;2022-07-03T05:01:16;16.80;99.90
20341;DHT22;10328;50.042;8.238;2022-07-03T05:03:43;16.80;99.90
20341;DHT22;10328;50.042;8.238;2022-07-03T05:06:09;16.80;99.90
20341;DHT22;10328;50.042;8.238;2022-07-03T05:08:36;16.80;99.90
20341;DHT22;10328;50.042;8.238;2022-07-03T05:11:03;16.80;99.90
20341;DHT22;10328;50.042;8.238;2022-07-03T05:13:29;16.90;99.90
20341;DHT22;10328;50.042;8.238;2022-07-03T05:15:56;17.10;99.90
20341;DHT22;10328;50.042;8.238;2022-07-03T05:18:22;17.20;99.90
20341;DHT22;10328;50.042;8.238;2022-07-03T05:20:49;17.40;99.90
20341;DHT22;10328;50.042;8.238;2022-07-03T05:23:16;17.40;99.90
20341;DHT22;10328;50.042;8.238;2022-07-03T05:25:43;17.40;99.90
20341;DHT22;10328;50.042;8.238;2022-07-03T05:28:09;17.50;99.90
20341;DHT22;10328;50.042;8.238;2022-07-03T05:30:36;17.60;99.90
20341;DHT22;10328;50.042;8.238;2022-07-03T05:33:03;17.70;99.90
20341;DHT22;10328;50.042;8.238;2022-07-03T05:35:29;17.80;99.90
20341;DHT22;10328;50.042;8.238;2022-07-03T05:37:56;17.90;99.90
20341;DHT22;10328;50.042;8.238;2022-07-03T05:40:23;17.80;99.90
20341;DHT22;10328;50.042;8.238;2022-07-03T05:42:49;17.90;99.90
20341;DHT22;10328;50.042;8.238;2022-07-03T05:45:16;18.10;99.90
20341;DHT22;10328;50.042;8.238;2022-07-03T05:47:43;18.10;99.90
20341;DHT22;10328;50.042;8.238;2022-07-03T05:50:10;18.10;99.90
20341;DHT22;10328;50.042;8.238;2022-07-03T05:52:37;18.10;99.90
20341;DHT22;10328;50.042;8.238;2022-07-03T05:55:04;18.30;99.90
20341;DHT22;10328;50.042;8.238;2022-07-03T05:57:31;18.40;99.90
20341;DHT22;10328;50.042;8.238;2022-07-03T06:00:00;18.60;99.90
20341;DHT22;10328;50.042;8.238;2022-07-03T06:02:26;18.70;99.90
20341;DHT22;10328;50.042;8.238;2022-07-03T06:04:53;18.80;99.90
20341;DHT22;10328;50.042;8.238;2022-07-03T06:07:20;18.80;99.90
20341;DHT22;10328;50.042;8.238;2022-07-03T06:09:47;18.90;99.90
20341;DHT22;10328;50.042;8.238;2022-07-03T06:12:14;19.10;99.90
20341;DHT22;10328;50.042;8.238;2022-07-03T06:14:41;19.20;99.90
20341;DHT22;10328;50.042;8.238;2022-07-03T06:17:07;19.40;99.90
20341;DHT22;10328;50.042;8.238;2022-07-03T06:19:34;19.50;99.90
20341;DHT22;10328;50.042;8.238;2022-07-03T06:22:01;19.60;99.90
20341;DHT22;10328;50.042;8.238;2022-07-03T06:24:28;19.90;99.90
20341;DHT22;10328;50.042;8.238;2022-07-03T06:26:54;20.30;99.90
20341;DHT22;10328;50.042;8.238;2022-07-03T06:29:21;20.60;99.90
20341;DHT22;10328;50.042;8.238;2022-07-03T06:31:48;20.70;99.90
20341;DHT22;10328;50.042;8.238;2022-07-03T06:34:14;20.80;99.90
20341;DHT22;10328;50.042;8.238;2022-07-03T06:36:41;20.80;99.90
20341;DHT22;10328;50.042;8.238;2022-07-03T06:39:08;20.70;99.90
20341;DHT22;10328;50.042;8.238;2022-07-03T06:41:34;20.70;99.90
20341;DHT22;10328;50.042;8.238;2022-07-03T06:44:01;20.80;99.90
20341;DHT22;10328;50.042;8.238;2022-07-03T06:46:28;20.70;99.90
20341;DHT22;10328;50.042;8.238;2022-07-03T06:48:54;20.70;99.90
20341;DHT22;10328;50.042;8.238;2022-07-03T06:51:21;20.80;99.90
20341;DHT22;10328;50.042;8.238;2022-07-03T06:53:48;20.80;99.90
20341;DHT22;10328;50.042;8.238;2022-07-03T06:56:14;20.80;99.90
20341;DHT22;10328;50.042;8.238;2022-07-03T06:58:41;20.80;99.90
20341;DHT22;10328;50.042;8.238;2022-07-03T07:01:08;20.90;99.90
20341;DHT22;10328;50.042;8.238;2022-07-03T07:03:34;21.10;99.90
20341;DHT22;10328;50.042;8.238;2022-07-03T07:06:01;21.40;99.90
20341;DHT22;10328;50.042;8.238;2022-07-03T07:08:28;21.70;99.90
20341;DHT22;10328;50.042;8.238;2022-07-03T07:10:55;22.00;99.90
20341;DHT22;10328;50.042;8.238;2022-07-03T07:13:21;22.80;99.90
20341;DHT22;10328;50.042;8.238;2022-07-03T07:15:48;23.90;99.90
20341;DHT22;10328;50.042;8.238;2022-07-03T07:18:15;25.10;99.90
20341;DHT22;10328;50.042;8.238;2022-07-03T07:20:41;26.10;99.90
20341;DHT22;10328;50.042;8.238;2022-07-03T07:23:08;26.90;99.90
20341;DHT22;10328;50.042;8.238;2022-07-03T07:25:35;27.00;99.90
20341;DHT22;10328;50.042;8.238;2022-07-03T07:28:09;27.50;99.90
20341;DHT22;10328;50.042;8.238;2022-07-03T07:30:36;27.50;99.90
20341;DHT22;10328;50.042;8.238;2022-07-03T07:33:03;27.80;99.90
20341;DHT22;10328;50.042;8.238;2022-07-03T07:35:29;28.20;99.90
20341;DHT22;10328;50.042;8.238;2022-07-03T07:37:58;27.90;99.90
20341;DHT22;10328;50.042;8.238;2022-07-03T07:40:30;27.80;99.90
20341;DHT22;10328;50.042;8.238;2022-07-03T07:42:57;28.10;99.90
20341;DHT22;10328;50.042;8.238;2022-07-03T07:45:23;27.80;99.90
20341;DHT22;10328;50.042;8.238;2022-07-03T07:47:50;28.10;99.90
20341;DHT22;10328;50.042;8.238;2022-07-03T07:50:17;28.00;99.90
20341;DHT22;10328;50.042;8.238;2022-07-03T07:52:44;28.00;99.90
20341;DHT22;10328;50.042;8.238;2022-07-03T07:55:10;27.70;99.90
20341;DHT22;10328;50.042;8.238;2022-07-03T07:57:38;27.90;99.90
20341;DHT22;10328;50.042;8.238;2022-07-03T08:00:08;27.90;99.90
20341;DHT22;10328;50.042;8.238;2022-07-03T08:02:35;27.90;99.90
20341;DHT22;10328;50.042;8.238;2022-07-03T08:05:21;27.90;99.90
20341;DHT22;10328;50.042;8.238;2022-07-03T08:08:16;27.60;99.90
20341;DHT22;10328;50.042;8.238;2022-07-03T08:10:50;27.10;99.90
20341;DHT22;10328;50.042;8.238;2022-07-03T08:13:18;26.70;99.90
20341;DHT22;10328;50.042;8.238;2022-07-03T08:15:46;26.30;99.90
20341;DHT22;10328;50.042;8.238;2022-07-03T08:18:15;26.00;99.90
20341;DHT22;10328;50.042;8.238;2022-07-03T08:20:42;25.90;99.90
20341;DHT22;10328;50.042;8.238;2022-07-03T08:23:09;25.90;99.90
20341;DHT22;10328;50.042;8.238;2022-07-03T08:25:36;25.70;99.90
20341;DHT22;10328;50.042;8.238;2022-07-03T08:28:02;25.60;99.90
20341;DHT22;10328;50.042;8.238;2022-07-03T08:30:29;25.70;99.90
20341;DHT22;10328;50.042;8.238;2022-07-03T08:32:57;25.70;99.90
20341;DHT22;10328;50.042;8.238;2022-07-03T08:35:24;26.00;99.90
20341;DHT22;10328;50.042;8.238;2022-07-03T08:37:51;26.00;99.90
20341;DHT22;10328;50.042;8.238;2022-07-03T08:40:19;26.20;99.90
20341;DHT22;10328;50.042;8.238;2022-07-03T08:42:48;26.50;99.90
20341;DHT22;10328;50.042;8.238;2022-07-03T08:45:20;26.70;99.90
20341;DHT22;10328;50.042;8.238;2022-07-03T08:47:48;26.80;99.90
20341;DHT22;10328;50.042;8.238;2022-07-03T08:50:17;26.90;99.90
20341;DHT22;10328;50.042;8.238;2022-07-03T08:52:45;27.00;99.90
20341;DHT22;10328;50.042;8.238;2022-07-03T08:55:13;27.20;99.90
20341;DHT22;10328;50.042;8.238;2022-07-03T08:57:41;27.30;99.90
20341;DHT22;10328;50.042;8.238;2022-07-03T09:00:14;27.60;99.90
20341;DHT22;10328;50.042;8.238;2022-07-03T09:02:43;27.80;99.90
20341;DHT22;10328;50.042;8.238;2022-07-03T09:05:11;27.70;99.90
20341;DHT22;10328;50.042;8.238;2022-07-03T09:07:39;27.50;99.90
20341;DHT22;10328;50.042;8.238;2022-07-03T09:10:13;27.50;99.90
20341;DHT22;10328;50.042;8.238;2022-07-03T09:12:42;27.50;99.90
20341;DHT22;10328;50.042;8.238;2022-07-03T09:15:10;27.60;99.90
20341;DHT22;10328;50.042;8.238;2022-07-03T09:17:38;27.90;99.90
20341;DHT22;10328;50.042;8.238;2022-07-03T09:20:06;28.10;99.90
20341;DHT22;10328;50.042;8.238;2022-07-03T09:22:35;28.10;99.90
20341;DHT22;10328;50.042;8.238;2022-07-03T09:25:12;28.30;99.90
20341;DHT22;10328;50.042;8.238;2022-07-03T09:27:51;28.30;99.90
20341;DHT22;10328;50.042;8.238;2022-07-03T09:30:19;28.50;99.90
20341;DHT22;10328;50.042;8.238;2022-07-03T09:32:47;28.50;99.90
20341;DHT22;10328;50.042;8.238;2022-07-03T09:37:52;28.60;99.90
20341;DHT22;10328;50.042;8.238;2022-07-03T09:40:20;28.50;99.90
20341;DHT22;10328;50.042;8.238;2022-07-03T09:43:04;28.60;99.90
20341;DHT22;10328;50.042;8.238;2022-07-03T09:45:50;28.40;99.90
20341;DHT22;10328;50.042;8.238;2022-07-03T09:48:31;28.60;99.90
20341;DHT22;10328;50.042;8.238;2022-07-03T09:51:27;28.70;99.90
20341;DHT22;10328;50.042;8.238;2022-07-03T09:54:02;28.80;99.90
20341;DHT22;10328;50.042;8.238;2022-07-03T09:56:36;29.00;99.90
20341;DHT22;10328;50.042;8.238;2022-07-03T10:01:36;29.30;99.90
20341;DHT22;10328;50.042;8.238;2022-07-03T10:04:19;29.20;99.90
20341;DHT22;10328;50.042;8.238;2022-07-03T10:09:24;29.40;99.90
20341;DHT22;10328;50.042;8.238;2022-07-03T10:11:52;29.30;99.90
20341;DHT22;10328;50.042;8.238;2022-07-03T10:14:23;29.40;99.90
20341;DHT22;10328;50.042;8.238;2022-07-03T10:16:50;29.50;99.90
20341;DHT22;10328;50.042;8.238;2022-07-03T10:19:20;29.50;99.90
20341;DHT22;10328;50.042;8.238;2022-07-03T10:21:55;29.40;99.90
20341;DHT22;10328;50.042;8.238;2022-07-03T10:24:25;29.30;99.90
20341;DHT22;10328;50.042;8.238;2022-07-03T10:26:53;29.40;99.90
20341;DHT22;10328;50.042;8.238;2022-07-03T10:29:22;29.50;99.90
20341;DHT22;10328;50.042;8.238;2022-07-03T10:31:54;29.50;99.90
20341;DHT22;10328;50.042;8.238;2022-07-03T10:34:23;29.50;99.90
20341;DHT22;10328;50.042;8.238;2022-07-03T10:37:02;29.70;99.90
20341;DHT22;10328;50.042;8.238;2022-07-03T10:39:33;30.00;99.90
20341;DHT22;10328;50.042;8.238;2022-07-03T10:42:04;29.80;99.90
20341;DHT22;10328;50.042;8.238;2022-07-03T10:44:51;29.70;99.90
20341;DHT22;10328;50.042;8.238;2022-07-03T10:47:48;29.50;99.90
20341;DHT22;10328;50.042;8.238;2022-07-03T10:50:20;29.00;99.90
20341;DHT22;10328;50.042;8.238;2022-07-03T10:52:48;29.00;99.90
20341;DHT22;10328;50.042;8.238;2022-07-03T10:55:16;29.30;99.90
20341;DHT22;10328;50.042;8.238;2022-07-03T10:58:06;29.60;99.90
20341;DHT22;10328;50.042;8.238;2022-07-03T11:00:30;29.90;99.90
20341;DHT22;10328;50.042;8.238;2022-07-03T11:02:57;30.10;99.90
20341;DHT22;10328;50.042;8.238;2022-07-03T11:05:26;29.90;99.90
20341;DHT22;10328;50.042;8.238;2022-07-03T11:13:04;29.90;99.90
20341;DHT22;10328;50.042;8.238;2022-07-03T11:25:48;29.80;99.60
20341;DHT22;10328;50.042;8.238;2022-07-03T11:36:30;30.10;98.50
20341;DHT22;10328;50.042;8.238;2022-07-03T11:41:26;30.10;98.10
20341;DHT22;10328;50.042;8.238;2022-07-03T11:43:58;29.70;98.20
20341;DHT22;10328;50.042;8.238;2022-07-03T11:46:26;30.10;99.80
20341;DHT22;10328;50.042;8.238;2022-07-03T11:49:14;30.10;97.80
20341;DHT22;10328;50.042;8.238;2022-07-03T11:51:43;29.90;97.80
20341;DHT22;10328;50.042;8.238;2022-07-03T11:54:10;30.10;98.00
20341;DHT22;10328;50.042;8.238;2022-07-03T11:56:37;30.30;97.40
20341;DHT22;10328;50.042;8.238;2022-07-03T11:59:05;30.40;97.80
20341;DHT22;10328;50.042;8.238;2022-07-03T12:01:39;30.20;97.30
20341;DHT22;10328;50.042;8.238;2022-07-03T12:04:19;30.30;98.10
20341;DHT22;10328;50.042;8.238;2022-07-03T12:06:58;30.10;97.90
20341;DHT22;10328;50.042;8.238;2022-07-03T12:09:36;30.10;96.40
20341;DHT22;10328;50.042;8.238;2022-07-03T12:12:07;30.10;97.30
20341;DHT22;10328;50.042;8.238;2022-07-03T12:17:00;30.10;96.40
20341;DHT22;10328;50.042;8.238;2022-07-03T12:19:27;30.10;96.40
20341;DHT22;10328;50.042;8.238;2022-07-03T12:21:54;30.00;96.10
20341;DHT22;10328;50.042;8.238;2022-07-03T12:24:21;30.20;96.50
20341;DHT22;10328;50.042;8.238;2022-07-03T12:26:48;30.40;95.80
20341;DHT22;10328;50.042;8.238;2022-07-03T12:29:16;30.40;95.40
20341;DHT22;10328;50.042;8.238;2022-07-03T12:31:47;30.40;96.50
20341;DHT22;10328;50.042;8.238;2022-07-03T12:34:16;30.40;96.40
20341;DHT22;10328;50.042;8.238;2022-07-03T12:36:57;30.40;96.30
20341;DHT22;10328;50.042;8.238;2022-07-03T12:39:41;30.30;95.90
20341;DHT22;10328;50.042;8.238;2022-07-03T12:42:18;30.30;95.60
20341;DHT22;10328;50.042;8.238;2022-07-03T12:45:02;30.20;95.50
20341;DHT22;10328;50.042;8.238;2022-07-03T12:47:30;30.40;95.80
20341;DHT22;10328;50.042;8.238;2022-07-03T12:50:02;30.10;95.90
20341;DHT22;10328;50.042;8.238;2022-07-03T12:52:31;30.00;95.70
20341;DHT22;10328;50.042;8.238;2022-07-03T12:54:59;30.10;96.90
20341;DHT22;10328;50.042;8.238;2022-07-03T12:57:26;30.50;96.00
20341;DHT22;10328;50.042;8.238;2022-07-03T13:00:16;30.90;94.60
20341;DHT22;10328;50.042;8.238;2022-07-03T13:02:45;30.80;95.10
20341;DHT22;10328;50.042;8.238;2022-07-03T13:05:18;31.00;94.60
20341;DHT22;10328;50.042;8.238;2022-07-03T13:07:47;31.10;94.40
20341;DHT22;10328;50.042;8.238;2022-07-03T13:10:15;31.00;95.10
20341;DHT22;10328;50.042;8.238;2022-07-03T13:12:53;30.90;94.30
20341;DHT22;10328;50.042;8.238;2022-07-03T13:15:24;31.00;94.60
20341;DHT22;10328;50.042;8.238;2022-07-03T13:20:29;31.30;94.20
20341;DHT22;10328;50.042;8.238;2022-07-03T13:23:02;31.60;94.40
20341;DHT22;10328;50.042;8.238;2022-07-03T13:25:30;31.40;93.50
20341;DHT22;10328;50.042;8.238;2022-07-03T13:28:10;31.10;93.00
20341;DHT22;10328;50.042;8.238;2022-07-03T13:30:40;31.10;93.20
20341;DHT22;10328;50.042;8.238;2022-07-03T13:33:07;31.40;94.00
20341;DHT22;10328;50.042;8.238;2022-07-03T13:35:36;31.40;94.50
20341;DHT22;10328;50.042;8.238;2022-07-03T13:38:03;31.50;94.30
20341;DHT22;10328;50.042;8.238;2022-07-03T13:40:30;31.30;93.10
20341;DHT22;10328;50.042;8.238;2022-07-03T13:42:57;31.00;94.00
20341;DHT22;10328;50.042;8.238;2022-07-03T13:45:24;30.90;93.80
20341;DHT22;10328;50.042;8.238;2022-07-03T13:47:51;30.80;93.70
20341;DHT22;10328;50.042;8.238;2022-07-03T13:50:18;30.50;93.80
20341;DHT22;10328;50.042;8.238;2022-07-03T13:52:44;30.30;93.90
20341;DHT22;10328;50.042;8.238;2022-07-03T13:55:16;30.50;94.60
20341;DHT22;10328;50.042;8.238;2022-07-03T13:57:42;30.80;94.20
20341;DHT22;10328;50.042;8.238;2022-07-03T14:00:10;31.20;93.10
20341;DHT22;10328;50.042;8.238;2022-07-03T14:02:37;31.50;92.90
20341;DHT22;10328;50.042;8.238;2022-07-03T14:05:06;31.90;92.70
20341;DHT22;10328;50.042;8.238;2022-07-03T14:07:33;32.20;92.80
20341;DHT22;10328;50.042;8.238;2022-07-03T14:10:00;32.20;92.50
20341;DHT22;10328;50.042;8.238;2022-07-03T14:12:27;32.40;91.80
20341;DHT22;10328;50.042;8.238;2022-07-03T14:14:53;32.50;92.20
20341;DHT22;10328;50.042;8.238;2022-07-03T14:17:20;32.30;92.20
20341;DHT22;10328;50.042;8.238;2022-07-03T14:19:47;32.00;91.80
20341;DHT22;10328;50.042;8.238;2022-07-03T14:22:13;32.00;92.20
20341;DHT22;10328;50.042;8.238;2022-07-03T14:24:40;31.80;91.70
20341;DHT22;10328;50.042;8.238;2022-07-03T14:27:07;31.90;92.20
20341;DHT22;10328;50.042;8.238;2022-07-03T14:29:53;31.60;91.90
20341;DHT22;10328;50.042;8.238;2022-07-03T14:32:38;31.60;92.60
20341;DHT22;10328;50.042;8.238;2022-07-03T14:35:05;31.40;91.90
20341;DHT22;10328;50.042;8.238;2022-07-03T14:37:32;31.40;92.30
20341;DHT22;10328;50.042;8.238;2022-07-03T14:39:59;31.50;92.00
20341;DHT22;10328;50.042;8.238;2022-07-03T14:42:26;31.50;92.20
20341;DHT22;10328;50.042;8.238;2022-07-03T14:44:53;31.30;92.30
20341;DHT22;10328;50.042;8.238;2022-07-03T14:47:19;30.90;92.00
20341;DHT22;10328;50.042;8.238;2022-07-03T14:49:47;30.90;92.30
20341;DHT22;10328;50.042;8.238;2022-07-03T14:52:14;31.30;92.00
20341;DHT22;10328;50.042;8.238;2022-07-03T14:54:41;31.30;92.70
20341;DHT22;10328;50.042;8.238;2022-07-03T14:57:25;31.60;92.30
20341;DHT22;10328;50.042;8.238;2022-07-03T15:02:44;31.70;92.00
20341;DHT22;10328;50.042;8.238;2022-07-03T15:05:12;31.60;92.20
20341;DHT22;10328;50.042;8.238;2022-07-03T15:07:47;31.70;91.90
20341;DHT22;10328;50.042;8.238;2022-07-03T15:10:17;31.80;91.60
20341;DHT22;10328;50.042;8.238;2022-07-03T15:12:52;31.60;92.30
20341;DHT22;10328;50.042;8.238;2022-07-03T15:15:21;31.20;90.60
20341;DHT22;10328;50.042;8.238;2022-07-03T15:17:53;31.20;91.30
20341;DHT22;10328;50.042;8.238;2022-07-03T15:20:20;31.20;91.30
20341;DHT22;10328;50.042;8.238;2022-07-03T15:22:48;31.30;90.70
20341;DHT22;10328;50.042;8.238;2022-07-03T15:25:18;31.50;91.80
20341;DHT22;10328;50.042;8.238;2022-07-03T15:27:50;31.70;92.00
20341;DHT22;10328;50.042;8.238;2022-07-03T15:30:19;31.70;91.80
20341;DHT22;10328;50.042;8.238;2022-07-03T15:32:47;31.60;91.50
20341;DHT22;10328;50.042;8.238;2022-07-03T15:35:15;31.60;91.60
20341;DHT22;10328;50.042;8.238;2022-07-03T15:40:35;31.50;90.70
20341;DHT22;10328;50.042;8.238;2022-07-03T15:43:32;31.30;90.70
20341;DHT22;10328;50.042;8.238;2022-07-03T15:52:03;30.60;91.20
20341;DHT22;10328;50.042;8.238;2022-07-03T16:00:08;30.50;92.20
20341;DHT22;10328;50.042;8.238;2022-07-03T16:02:43;30.70;92.20
20341;DHT22;10328;50.042;8.238;2022-07-03T16:05:17;30.90;92.00
20341;DHT22;10328;50.042;8.238;2022-07-03T16:07:46;31.10;91.90
20341;DHT22;10328;50.042;8.238;2022-07-03T16:10:13;31.30;91.40
20341;DHT22;10328;50.042;8.238;2022-07-03T16:12:41;31.40;91.20
20341;DHT22;10328;50.042;8.238;2022-07-03T16:15:09;31.20;91.40
20341;DHT22;10328;50.042;8.238;2022-07-03T16:17:36;31.20;91.40
20341;DHT22;10328;50.042;8.238;2022-07-03T16:20:05;31.30;91.50
20341;DHT22;10328;50.042;8.238;2022-07-03T16:22:36;31.30;91.10
20341;DHT22;10328;50.042;8.238;2022-07-03T16:25:04;31.20;90.40
20341;DHT22;10328;50.042;8.238;2022-07-03T16:27:31;31.20;90.70
20341;DHT22;10328;50.042;8.238;2022-07-03T16:29:58;31.10;90.40
20341;DHT22;10328;50.042;8.238;2022-07-03T16:35:45;31.20;90.90
20341;DHT22;10328;50.042;8.238;2022-07-03T16:38:19;31.20;91.10
20341;DHT22;10328;50.042;8.238;2022-07-03T16:40:49;31.20;90.40
20341;DHT22;10328;50.042;8.238;2022-07-03T16:43:19;31.10;91.30
20341;DHT22;10328;50.042;8.238;2022-07-03T16:45:49;30.90;90.40
20341;DHT22;10328;50.042;8.238;2022-07-03T16:48:21;30.90;91.10
20341;DHT22;10328;50.042;8.238;2022-07-03T16:50:54;30.90;90.50
20341;DHT22;10328;50.042;8.238;2022-07-03T16:53:22;30.90;90.70
20341;DHT22;10328;50.042;8.238;2022-07-03T16:55:49;31.00;90.30
20341;DHT22;10328;50.042;8.238;2022-07-03T16:58:16;30.90;90.70
20341;DHT22;10328;50.042;8.238;2022-07-03T17:00:44;30.90;90.50
20341;DHT22;10328;50.042;8.238;2022-07-03T17:03:12;31.00;90.90
20341;DHT22;10328;50.042;8.238;2022-07-03T17:05:40;30.80;90.50
20341;DHT22;10328;50.042;8.238;2022-07-03T17:08:07;30.80;91.50
20341;DHT22;10328;50.042;8.238;2022-07-03T17:10:35;30.80;91.00
20341;DHT22;10328;50.042;8.238;2022-07-03T17:13:02;30.80;91.20
20341;DHT22;10328;50.042;8.238;2022-07-03T17:15:29;30.70;90.90
20341;DHT22;10328;50.042;8.238;2022-07-03T17:18:02;30.60;91.20
20341;DHT22;10328;50.042;8.238;2022-07-03T17:20:42;30.60;91.50